createdAt,value
2023-03-18T00:03:45.916Z,5.85
2023-03-18T00:08:48.134Z,5.18
2023-03-18T00:13:49.664Z,6.13
2023-03-18T00:18:51.126Z,5.20
2023-03-18T00:23:56.540Z,6.20
2023-03-18T00:28:58.822Z,6.90
2023-03-18T00:34:01.069Z,6.50
2023-03-18T00:39:03.737Z,6.40
2023-03-18T00:44:05.539Z,6.82
2023-03-18T00:49:07.933Z,6.25
2023-03-18T00:54:11.083Z,6.47
2023-03-18T00:59:13.434Z,6.65
2023-03-18T01:04:15.090Z,6.10
2023-03-18T01:09:16.659Z,5.38
2023-03-18T01:14:19.169Z,5.53
2023-03-18T01:19:20.965Z,7.13
2023-03-18T01:24:22.815Z,6.10
2023-03-18T01:29:25.345Z,5.32
2023-03-18T01:34:26.836Z,5.78
2023-03-18T01:39:28.355Z,5.68
2023-03-18T01:44:30.897Z,5.53
2023-03-18T01:49:36.867Z,5.63
2023-03-18T01:54:41.473Z,6.72
2023-03-18T01:59:44.362Z,5.30
2023-03-18T02:04:50.487Z,6.45
2023-03-18T02:09:52.820Z,6.30
2023-03-18T02:14:54.486Z,5.63
2023-03-18T02:19:59.131Z,5.18
2023-03-18T02:25:02.592Z,6.10
2023-03-18T02:30:13.082Z,6.20
2023-03-18T02:35:14.689Z,5.28
2023-03-18T02:40:18.057Z,5.38
2023-03-18T02:45:29.601Z,6.47
2023-03-18T02:50:31.615Z,5.57
2023-03-18T02:55:33.270Z,6.00
2023-03-18T03:00:35.576Z,5.80
2023-03-18T03:05:38.205Z,6.20
2023-03-18T03:10:40.094Z,6.22
2023-03-18T03:15:42.815Z,5.25
2023-03-18T03:20:44.937Z,5.47
2023-03-18T03:25:46.485Z,5.78
2023-03-18T03:30:48.086Z,5.80
2023-03-18T03:35:49.808Z,6.50
2023-03-18T03:40:51.555Z,5.80
2023-03-18T03:45:53.128Z,5.22
2023-03-18T03:50:54.642Z,5.68
2023-03-18T03:55:58.988Z,4.97
2023-03-18T04:01:01.046Z,4.80
2023-03-18T04:06:02.559Z,6.00
2023-03-18T04:11:04.722Z,6.13
2023-03-18T04:16:06.491Z,5.78
2023-03-18T04:21:08.239Z,5.93
2023-03-18T04:26:10.526Z,5.65
2023-03-18T04:31:12.086Z,4.68
2023-03-18T04:36:14.208Z,6.07
2023-03-18T04:41:15.975Z,5.60
2023-03-18T04:46:17.482Z,5.47
2023-03-18T04:51:19.152Z,5.30
2023-03-18T04:56:20.632Z,6.55
2023-03-18T05:01:22.614Z,6.78
2023-03-18T05:06:25.531Z,6.72
2023-03-18T05:11:27.595Z,6.45
2023-03-18T05:16:30.200Z,6.43
2023-03-18T05:21:31.841Z,6.50
2023-03-18T05:26:33.364Z,6.65
2023-03-18T05:31:35.188Z,7.10
2023-03-18T05:36:36.772Z,6.75
2023-03-18T05:41:38.761Z,6.90
2023-03-18T05:46:40.263Z,6.00
2023-03-18T05:51:41.791Z,6.45
2023-03-18T05:56:45.501Z,6.55
2023-03-18T06:01:47.415Z,5.70
2023-03-18T06:06:49.751Z,4.55
2023-03-18T06:11:51.593Z,5.85
2023-03-18T06:16:53.462Z,6.15
2023-03-18T06:21:55.074Z,6.15
2023-03-18T06:26:56.586Z,7.60
2023-03-18T06:31:58.094Z,6.22
2023-03-18T06:36:59.654Z,6.47
2023-03-18T06:42:01.324Z,6.65
2023-03-18T06:47:02.851Z,6.30
2023-03-18T06:52:04.561Z,6.00
2023-03-18T06:57:06.514Z,6.90
2023-03-18T07:02:10.366Z,5.75
2023-03-18T07:07:12.110Z,6.05
2023-03-18T07:12:14.051Z,6.53
2023-03-18T07:17:15.609Z,6.70
2023-03-18T07:22:17.912Z,6.68
2023-03-18T07:27:19.460Z,6.38
2023-03-18T07:32:21.020Z,6.85
2023-03-18T07:37:23.095Z,6.85
2023-03-18T07:42:24.791Z,6.45
2023-03-18T07:47:26.281Z,5.57
2023-03-18T07:52:27.753Z,7.07
2023-03-18T07:57:29.339Z,5.57
2023-03-18T08:02:31.994Z,6.25
2023-03-18T08:07:34.797Z,6.85
2023-03-18T08:12:51.593Z,7.65
2023-03-18T08:17:53.992Z,7.35
2023-03-18T08:22:56.079Z,7.03
2023-03-18T08:27:58.402Z,6.70
2023-03-18T08:33:00.244Z,6.68
2023-03-18T08:38:01.850Z,6.15
2023-03-18T08:43:03.710Z,7.03
2023-03-18T08:48:05.740Z,6.53
2023-03-18T08:53:07.272Z,6.85
2023-03-18T08:58:09.399Z,6.63
2023-03-18T09:03:11.328Z,5.80
2023-03-18T09:08:13.614Z,5.82
2023-03-18T09:13:15.514Z,6.90
2023-03-18T09:18:18.319Z,6.43
2023-03-18T09:23:19.869Z,6.00
2023-03-18T09:28:21.408Z,6.18
2023-03-18T09:33:23.287Z,5.82
2023-03-18T09:38:24.797Z,5.88
2023-03-18T09:43:41.403Z,5.65
2023-03-18T09:48:48.663Z,6.55
2023-03-18T09:53:55.752Z,6.43
2023-03-18T09:58:57.591Z,5.90
2023-03-18T10:04:22.371Z,6.00
2023-03-18T10:09:29.023Z,5.53
2023-03-18T10:14:30.820Z,5.35
2023-03-18T10:19:33.739Z,6.22
2023-03-18T10:24:50.835Z,5.28
2023-03-18T10:29:55.987Z,5.20
2023-03-18T10:35:02.085Z,4.93
2023-03-18T10:40:10.724Z,6.13
2023-03-18T10:45:19.534Z,5.10
2023-03-18T10:50:30.013Z,5.97
2023-03-18T10:55:35.441Z,4.95
2023-03-18T11:00:37.425Z,5.53
2023-03-18T11:05:39.142Z,5.60
2023-03-18T11:10:46.896Z,5.05
2023-03-18T11:15:52.711Z,4.95
2023-03-18T11:20:59.378Z,5.00
2023-03-18T11:26:00.921Z,5.80
2023-03-18T11:31:05.215Z,5.80
2023-03-18T11:36:07.489Z,5.90
2023-03-18T11:41:23.853Z,6.22
2023-03-18T11:46:26.641Z,5.00
2023-03-18T11:51:31.936Z,5.43
2023-03-18T11:56:39.416Z,5.28
2023-03-18T12:01:50.493Z,5.75
2023-03-18T12:06:56.114Z,5.78
2023-03-18T12:12:00.999Z,6.05
2023-03-18T12:17:14.551Z,4.85
2023-03-18T12:22:26.729Z,5.15
2023-03-18T12:27:28.997Z,5.50
2023-03-18T12:32:36.701Z,6.72
2023-03-18T12:37:57.063Z,6.72
2023-03-18T12:43:17.456Z,5.97
2023-03-18T12:48:36.862Z,6.07
2023-03-18T12:53:46.329Z,7.22
2023-03-18T12:58:54.107Z,7.40
2023-03-18T13:03:58.461Z,6.13
2023-03-18T13:09:12.172Z,7.57
2023-03-18T13:14:13.634Z,7.15
2023-03-18T13:19:15.506Z,7.90
2023-03-18T13:24:19.757Z,6.97
2023-03-18T13:29:27.085Z,7.57
2023-03-18T13:34:46.956Z,6.53
2023-03-18T13:39:58.871Z,7.43
2023-03-18T13:45:06.994Z,7.63
2023-03-18T13:50:29.132Z,7.05
2023-03-18T13:55:32.978Z,7.10
2023-03-18T14:00:36.155Z,8.02
2023-03-18T14:05:40.553Z,7.80
2023-03-18T14:10:42.111Z,7.68
2023-03-18T14:15:46.365Z,7.82
2023-03-18T14:20:52.661Z,7.65
2023-03-18T14:26:04.637Z,7.28
2023-03-18T14:31:26.595Z,6.22
2023-03-18T14:36:40.013Z,6.75
2023-03-18T14:41:45.645Z,7.60
2023-03-18T14:46:51.454Z,7.22
2023-03-18T14:51:54.110Z,7.32
2023-03-18T14:56:58.042Z,7.38
2023-03-18T15:02:02.291Z,7.20
2023-03-18T15:07:05.622Z,6.88
2023-03-18T15:12:24.260Z,8.45
2023-03-18T15:17:27.509Z,8.80
2023-03-18T15:22:30.816Z,7.07
2023-03-18T15:27:33.998Z,7.72
2023-03-18T15:32:46.098Z,6.90
2023-03-18T15:38:01.992Z,8.07
2023-03-18T15:43:03.488Z,6.65
2023-03-18T15:48:08.384Z,7.57
2023-03-18T15:53:21.745Z,7.70
2023-03-18T15:58:26.187Z,7.75
2023-03-18T16:03:31.353Z,7.88
2023-03-18T16:08:32.877Z,7.78
2023-03-18T16:13:36.719Z,8.32
2023-03-18T16:18:38.285Z,7.82
2023-03-18T16:23:40.959Z,8.65
2023-03-18T16:28:49.824Z,8.55
2023-03-18T16:33:53.728Z,8.20
2023-03-18T16:38:55.351Z,8.32
2023-03-18T16:43:56.873Z,9.07
2023-03-18T16:48:58.416Z,8.88
2023-03-18T16:54:00.000Z,8.93
2023-03-18T16:59:02.780Z,9.07
2023-03-18T17:04:12.027Z,10.60
2023-03-18T17:09:13.585Z,9.50
2023-03-18T17:14:44.416Z,10.05
2023-03-18T17:19:45.907Z,10.10
2023-03-18T17:24:47.479Z,9.35
2023-03-18T17:29:49.179Z,9.63
2023-03-18T17:34:51.817Z,9.27
2023-03-18T17:39:53.457Z,8.95
2023-03-18T17:44:55.348Z,10.25
2023-03-18T17:49:56.838Z,10.57
2023-03-18T17:54:58.321Z,11.18
2023-03-18T17:59:59.901Z,11.77
2023-03-18T18:05:01.583Z,10.98
2023-03-18T18:10:03.601Z,10.80
2023-03-18T18:15:05.895Z,10.55
2023-03-18T18:20:09.938Z,11.27
2023-03-18T18:25:15.703Z,10.27
2023-03-18T18:30:18.258Z,11.13
2023-03-18T18:35:20.633Z,11.23
2023-03-18T18:40:22.515Z,11.38
2023-03-18T18:45:24.240Z,10.13
2023-03-18T18:50:32.443Z,10.60
2023-03-18T18:55:34.658Z,9.65
2023-03-18T19:00:37.206Z,10.55
2023-03-18T19:05:38.771Z,10.85
2023-03-18T19:10:41.112Z,9.88
2023-03-18T19:15:42.976Z,10.52
2023-03-18T19:20:44.579Z,9.90
2023-03-18T19:25:46.732Z,10.85
2023-03-18T19:30:48.402Z,9.52
2023-03-18T19:35:50.011Z,9.60
2023-03-18T19:40:52.902Z,9.90
2023-03-18T19:45:54.889Z,10.20
2023-03-18T19:50:57.976Z,10.00
2023-03-18T19:55:59.707Z,11.13
2023-03-18T20:01:01.955Z,9.43
2023-03-18T20:06:03.584Z,10.23
2023-03-18T20:11:05.292Z,11.35
2023-03-18T20:16:07.212Z,9.63
2023-03-18T20:21:23.537Z,11.18
2023-03-18T20:26:25.032Z,11.10
2023-03-18T20:31:26.565Z,10.80
2023-03-18T20:36:28.090Z,9.80
2023-03-18T20:41:31.154Z,10.90
2023-03-18T20:46:32.705Z,10.02
2023-03-18T20:51:36.684Z,10.75
2023-03-18T20:56:38.196Z,9.98
2023-03-18T21:01:40.471Z,10.80
2023-03-18T21:06:42.165Z,9.13
2023-03-18T21:11:43.764Z,9.25
2023-03-18T21:16:45.336Z,10.55
2023-03-18T21:21:46.912Z,9.30
2023-03-18T21:27:03.133Z,9.68
2023-03-18T21:32:05.079Z,9.52
2023-03-18T21:37:13.875Z,9.63
2023-03-18T21:42:19.471Z,10.68
2023-03-18T21:47:22.030Z,10.32
2023-03-18T21:52:30.628Z,10.77
2023-03-18T21:57:32.167Z,9.73
2023-03-18T22:02:35.240Z,10.45
2023-03-18T22:07:36.766Z,10.13
2023-03-18T22:12:38.290Z,10.30
2023-03-18T22:17:41.188Z,10.00
2023-03-18T22:22:42.669Z,10.15
2023-03-18T22:27:44.177Z,9.73
2023-03-18T22:32:47.260Z,8.98
2023-03-18T22:37:49.263Z,10.25
2023-03-18T22:42:52.280Z,9.05
2023-03-18T22:47:55.794Z,8.68
2023-03-18T22:53:00.131Z,8.95
2023-03-18T22:58:01.895Z,8.93
2023-03-18T23:03:03.690Z,8.55
2023-03-18T23:08:06.175Z,8.98
2023-03-18T23:13:26.536Z,8.85
2023-03-18T23:18:28.136Z,8.88
2023-03-18T23:23:30.450Z,8.63
2023-03-18T23:28:40.959Z,8.35
2023-03-18T23:33:45.618Z,8.52
2023-03-18T23:38:47.127Z,8.82
2023-03-18T23:43:48.702Z,7.18
2023-03-18T23:48:50.521Z,6.70
2023-03-18T23:53:52.379Z,6.15
2023-03-18T23:58:53.985Z,6.00
